sensor_id;sensor_type;location;lat;lon;timestamp;temperature;humidity
35445;DHT22;21562;49.476;6.086;2023-08-01T00:01:30;17.80;99.90
35445;DHT22;21562;49.476;6.086;2023-08-01T00:03:55;17.80;99.90
35445;DHT22;21562;49.476;6.086;2023-08-01T00:06:21;17.80;99.90
35445;DHT22;21562;49.476;6.086;2023-08-01T00:08:48;17.80;99.90
35445;DHT22;21562;49.476;6.086;2023-08-01T00:11:13;17.80;99.90
35445;DHT22;21562;49.476;6.086;2023-08-01T00:13:40;17.80;99.90
35445;DHT22;21562;49.476;6.086;2023-08-01T00:16:06;17.80;99.90
35445;DHT22;21562;49.476;6.086;2023-08-01T00:18:32;17.90;99.90
35445;DHT22;21562;49.476;6.086;2023-08-01T00:20:57;17.80;99.90
35445;DHT22;21562;49.476;6.086;2023-08-01T00:23:24;17.80;99.90
35445;DHT22;21562;49.476;6.086;2023-08-01T00:25:50;17.80;99.90
35445;DHT22;21562;49.476;6.086;2023-08-01T00:28:21;17.80;99.90
35445;DHT22;21562;49.476;6.086;2023-08-01T00:30:47;17.90;99.90
35445;DHT22;21562;49.476;6.086;2023-08-01T00:33:13;17.80;99.90
35445;DHT22;21562;49.476;6.086;2023-08-01T00:35:40;17.70;99.90
35445;DHT22;21562;49.476;6.086;2023-08-01T00:38:06;17.80;99.90
35445;DHT22;21562;49.476;6.086;2023-08-01T00:40:32;17.80;99.90
35445;DHT22;21562;49.476;6.086;2023-08-01T00:42:57;17.80;99.90
35445;DHT22;21562;49.476;6.086;2023-08-01T00:45:25;17.90;99.90
35445;DHT22;21562;49.476;6.086;2023-08-01T00:47:51;17.80;99.90
35445;DHT22;21562;49.476;6.086;2023-08-01T00:50:18;17.80;99.90
35445;DHT22;21562;49.476;6.086;2023-08-01T00:52:46;17.80;99.90
35445;DHT22;21562;49.476;6.086;2023-08-01T00:55:12;17.90;99.90
35445;DHT22;21562;49.476;6.086;2023-08-01T00:57:38;17.90;99.90
35445;DHT22;21562;49.476;6.086;2023-08-01T01:00:04;17.70;99.90
35445;DHT22;21562;49.476;6.086;2023-08-01T01:02:30;17.80;99.90
35445;DHT22;21562;49.476;6.086;2023-08-01T01:04:56;17.80;99.90
35445;DHT22;21562;49.476;6.086;2023-08-01T01:07:22;17.90;99.90
35445;DHT22;21562;49.476;6.086;2023-08-01T01:09:50;17.90;99.90
35445;DHT22;21562;49.476;6.086;2023-08-01T01:12:16;18.00;99.90
35445;DHT22;21562;49.476;6.086;2023-08-01T01:14:41;17.90;99.90
35445;DHT22;21562;49.476;6.086;2023-08-01T01:17:07;17.80;99.90
35445;DHT22;21562;49.476;6.086;2023-08-01T01:19:33;17.80;99.90
35445;DHT22;21562;49.476;6.086;2023-08-01T01:21:58;17.90;99.90
35445;DHT22;21562;49.476;6.086;2023-08-01T01:24:25;17.80;99.90
35445;DHT22;21562;49.476;6.086;2023-08-01T01:26:52;17.80;99.90
35445;DHT22;21562;49.476;6.086;2023-08-01T01:29:19;17.90;99.90
35445;DHT22;21562;49.476;6.086;2023-08-01T01:31:46;17.90;99.90
35445;DHT22;21562;49.476;6.086;2023-08-01T01:34:13;17.90;99.90
35445;DHT22;21562;49.476;6.086;2023-08-01T01:36:38;17.80;99.90
35445;DHT22;21562;49.476;6.086;2023-08-01T01:39:04;17.90;99.90
35445;DHT22;21562;49.476;6.086;2023-08-01T01:41:29;17.80;99.90
35445;DHT22;21562;49.476;6.086;2023-08-01T01:43:55;17.80;99.90
35445;DHT22;21562;49.476;6.086;2023-08-01T01:46:20;17.80;99.90
35445;DHT22;21562;49.476;6.086;2023-08-01T01:48:46;17.70;99.90
35445;DHT22;21562;49.476;6.086;2023-08-01T01:51:12;17.80;99.90
35445;DHT22;21562;49.476;6.086;2023-08-01T01:53:38;17.70;99.90
35445;DHT22;21562;49.476;6.086;2023-08-01T01:56:04;17.70;99.90
35445;DHT22;21562;49.476;6.086;2023-08-01T01:58:29;17.60;99.90
35445;DHT22;21562;49.476;6.086;2023-08-01T02:00:55;17.60;99.90
35445;DHT22;21562;49.476;6.086;2023-08-01T02:03:21;17.60;99.90
35445;DHT22;21562;49.476;6.086;2023-08-01T02:05:46;17.60;99.90
35445;DHT22;21562;49.476;6.086;2023-08-01T02:08:12;17.60;99.90
35445;DHT22;21562;49.476;6.086;2023-08-01T02:10:38;17.60;99.90
35445;DHT22;21562;49.476;6.086;2023-08-01T02:13:03;17.50;99.90
35445;DHT22;21562;49.476;6.086;2023-08-01T02:15:29;17.50;99.90
35445;DHT22;21562;49.476;6.086;2023-08-01T02:17:56;17.50;99.90
35445;DHT22;21562;49.476;6.086;2023-08-01T02:20:21;17.50;99.90
35445;DHT22;21562;49.476;6.086;2023-08-01T02:22:47;17.50;99.90
35445;DHT22;21562;49.476;6.086;2023-08-01T02:25:13;17.60;99.90
35445;DHT22;21562;49.476;6.086;2023-08-01T02:27:38;17.50;99.90
35445;DHT22;21562;49.476;6.086;2023-08-01T02:30:04;17.40;99.90
35445;DHT22;21562;49.476;6.086;2023-08-01T02:32:31;17.40;99.90
35445;DHT22;21562;49.476;6.086;2023-08-01T02:34:56;17.40;99.90
35445;DHT22;21562;49.476;6.086;2023-08-01T02:37:22;17.40;99.90
35445;DHT22;21562;49.476;6.086;2023-08-01T02:39:47;17.50;99.90
35445;DHT22;21562;49.476;6.086;2023-08-01T02:42:13;17.60;99.90
35445;DHT22;21562;49.476;6.086;2023-08-01T02:44:38;17.60;99.90
35445;DHT22;21562;49.476;6.086;2023-08-01T02:47:04;17.50;99.90
35445;DHT22;21562;49.476;6.086;2023-08-01T02:49:31;17.50;99.90
35445;DHT22;21562;49.476;6.086;2023-08-01T02:51:57;17.40;99.90
35445;DHT22;21562;49.476;6.086;2023-08-01T02:54:24;17.30;99.90
35445;DHT22;21562;49.476;6.086;2023-08-01T02:56:50;17.50;99.90
35445;DHT22;21562;49.476;6.086;2023-08-01T02:59:16;17.70;99.90
35445;DHT22;21562;49.476;6.086;2023-08-01T03:01:43;17.50;99.90
35445;DHT22;21562;49.476;6.086;2023-08-01T03:04:09;17.50;99.90
35445;DHT22;21562;49.476;6.086;2023-08-01T03:06:37;17.40;99.90
35445;DHT22;21562;49.476;6.086;2023-08-01T03:09:03;17.40;99.90
35445;DHT22;21562;49.476;6.086;2023-08-01T03:11:34;17.40;99.90
35445;DHT22;21562;49.476;6.086;2023-08-01T03:14:00;17.40;99.90
35445;DHT22;21562;49.476;6.086;2023-08-01T03:16:26;17.40;99.90
35445;DHT22;21562;49.476;6.086;2023-08-01T03:18:51;17.30;99.90
35445;DHT22;21562;49.476;6.086;2023-08-01T03:21:17;17.30;99.90
35445;DHT22;21562;49.476;6.086;2023-08-01T03:23:43;17.20;99.90
35445;DHT22;21562;49.476;6.086;2023-08-01T03:26:08;17.30;99.90
35445;DHT22;21562;49.476;6.086;2023-08-01T03:28:34;17.30;99.90
35445;DHT22;21562;49.476;6.086;2023-08-01T03:31:00;17.30;99.90
35445;DHT22;21562;49.476;6.086;2023-08-01T03:33:26;17.30;99.90
35445;DHT22;21562;49.476;6.086;2023-08-01T03:35:52;17.30;99.90
35445;DHT22;21562;49.476;6.086;2023-08-01T03:38:17;17.30;99.90
35445;DHT22;21562;49.476;6.086;2023-08-01T03:40:43;17.40;99.90
35445;DHT22;21562;49.476;6.086;2023-08-01T03:43:08;17.60;99.90
35445;DHT22;21562;49.476;6.086;2023-08-01T03:45:35;17.60;99.90
35445;DHT22;21562;49.476;6.086;2023-08-01T03:48:01;17.70;99.90
35445;DHT22;21562;49.476;6.086;2023-08-01T03:50:26;17.60;99.90
35445;DHT22;21562;49.476;6.086;2023-08-01T03:52:52;17.60;99.90
35445;DHT22;21562;49.476;6.086;2023-08-01T03:55:18;17.50;99.90
35445;DHT22;21562;49.476;6.086;2023-08-01T03:57:44;17.60;99.90
35445;DHT22;21562;49.476;6.086;2023-08-01T04:00:10;17.60;99.90
35445;DHT22;21562;49.476;6.086;2023-08-01T04:02:41;17.50;99.90
35445;DHT22;21562;49.476;6.086;2023-08-01T04:05:08;17.50;99.90
35445;DHT22;21562;49.476;6.086;2023-08-01T04:07:35;17.40;99.90
35445;DHT22;21562;49.476;6.086;2023-08-01T04:10:01;17.40;99.90
35445;DHT22;21562;49.476;6.086;2023-08-01T04:12:28;17.40;99.90
35445;DHT22;21562;49.476;6.086;2023-08-01T04:14:53;17.30;99.90
35445;DHT22;21562;49.476;6.086;2023-08-01T04:17:19;17.40;99.90
35445;DHT22;21562;49.476;6.086;2023-08-01T04:19:45;17.40;99.90
35445;DHT22;21562;49.476;6.086;2023-08-01T04:22:10;17.40;99.90
35445;DHT22;21562;49.476;6.086;2023-08-01T04:24:36;17.50;99.90
35445;DHT22;21562;49.476;6.086;2023-08-01T04:27:02;17.50;99.90
35445;DHT22;21562;49.476;6.086;2023-08-01T04:29:27;17.60;99.90
35445;DHT22;21562;49.476;6.086;2023-08-01T04:31:53;17.60;99.90
35445;DHT22;21562;49.476;6.086;2023-08-01T04:34:18;17.60;99.90
35445;DHT22;21562;49.476;6.086;2023-08-01T04:36:44;17.80;99.90
35445;DHT22;21562;49.476;6.086;2023-08-01T04:39:09;17.90;99.90
35445;DHT22;21562;49.476;6.086;2023-08-01T04:41:35;17.80;99.90
35445;DHT22;21562;49.476;6.086;2023-08-01T04:44:01;17.80;99.90
35445;DHT22;21562;49.476;6.086;2023-08-01T04:46:26;17.90;99.90
35445;DHT22;21562;49.476;6.086;2023-08-01T04:48:52;18.00;99.90
35445;DHT22;21562;49.476;6.086;2023-08-01T04:51:17;17.90;99.90
35445;DHT22;21562;49.476;6.086;2023-08-01T04:53:43;17.90;99.90
35445;DHT22;21562;49.476;6.086;2023-08-01T04:56:09;17.70;99.90
35445;DHT22;21562;49.476;6.086;2023-08-01T04:58:34;17.70;99.90
35445;DHT22;21562;49.476;6.086;2023-08-01T05:01:00;17.80;99.90
35445;DHT22;21562;49.476;6.086;2023-08-01T05:03:26;17.80;99.90
35445;DHT22;21562;49.476;6.086;2023-08-01T05:05:51;18.00;99.90
35445;DHT22;21562;49.476;6.086;2023-08-01T05:08:17;18.20;99.90
35445;DHT22;21562;49.476;6.086;2023-08-01T05:10:42;18.30;99.90
35445;DHT22;21562;49.476;6.086;2023-08-01T05:13:08;18.20;99.90
35445;DHT22;21562;49.476;6.086;2023-08-01T05:15:33;18.10;99.90
35445;DHT22;21562;49.476;6.086;2023-08-01T05:17:59;18.10;99.90
35445;DHT22;21562;49.476;6.086;2023-08-01T05:20:25;18.00;99.90
35445;DHT22;21562;49.476;6.086;2023-08-01T05:22:58;17.90;99.90
35445;DHT22;21562;49.476;6.086;2023-08-01T05:25:25;17.90;99.90
35445;DHT22;21562;49.476;6.086;2023-08-01T05:27:50;17.90;99.90
35445;DHT22;21562;49.476;6.086;2023-08-01T05:30:16;17.60;99.90
35445;DHT22;21562;49.476;6.086;2023-08-01T05:32:42;17.40;99.90
35445;DHT22;21562;49.476;6.086;2023-08-01T05:35:09;17.50;99.90
35445;DHT22;21562;49.476;6.086;2023-08-01T05:37:34;17.40;99.90
35445;DHT22;21562;49.476;6.086;2023-08-01T05:40:02;17.10;99.90
35445;DHT22;21562;49.476;6.086;2023-08-01T05:42:28;16.90;99.90
35445;DHT22;21562;49.476;6.086;2023-08-01T05:44:53;16.80;99.90
35445;DHT22;21562;49.476;6.086;2023-08-01T05:47:19;16.80;99.90
35445;DHT22;21562;49.476;6.086;2023-08-01T05:49:45;16.90;99.90
35445;DHT22;21562;49.476;6.086;2023-08-01T05:52:10;16.80;99.90
35445;DHT22;21562;49.476;6.086;2023-08-01T05:54:36;16.90;99.90
35445;DHT22;21562;49.476;6.086;2023-08-01T05:57:02;16.90;99.90
35445;DHT22;21562;49.476;6.086;2023-08-01T05:59:27;16.80;99.90
35445;DHT22;21562;49.476;6.086;2023-08-01T06:01:53;16.70;99.90
35445;DHT22;21562;49.476;6.086;2023-08-01T06:04:18;16.60;99.90
35445;DHT22;21562;49.476;6.086;2023-08-01T06:06:44;16.70;99.90
35445;DHT22;21562;49.476;6.086;2023-08-01T06:09:10;16.70;99.90
35445;DHT22;21562;49.476;6.086;2023-08-01T06:11:35;16.80;99.90
35445;DHT22;21562;49.476;6.086;2023-08-01T06:14:01;16.90;99.90
35445;DHT22;21562;49.476;6.086;2023-08-01T06:16:27;16.80;99.90
35445;DHT22;21562;49.476;6.086;2023-08-01T06:18:52;16.90;99.90
35445;DHT22;21562;49.476;6.086;2023-08-01T06:21:18;17.10;99.90
35445;DHT22;21562;49.476;6.086;2023-08-01T06:23:44;17.00;99.90
35445;DHT22;21562;49.476;6.086;2023-08-01T06:26:10;17.20;99.90
35445;DHT22;21562;49.476;6.086;2023-08-01T06:28:35;17.30;99.90
35445;DHT22;21562;49.476;6.086;2023-08-01T06:31:01;17.40;99.90
35445;DHT22;21562;49.476;6.086;2023-08-01T06:33:26;17.40;99.90
35445;DHT22;21562;49.476;6.086;2023-08-01T06:35:52;17.50;99.90
35445;DHT22;21562;49.476;6.086;2023-08-01T06:38:18;17.70;99.90
35445;DHT22;21562;49.476;6.086;2023-08-01T06:40:43;17.70;99.90
35445;DHT22;21562;49.476;6.086;2023-08-01T06:43:09;17.50;99.90
35445;DHT22;21562;49.476;6.086;2023-08-01T06:45:34;17.20;99.90
35445;DHT22;21562;49.476;6.086;2023-08-01T06:48:00;16.90;99.90
35445;DHT22;21562;49.476;6.086;2023-08-01T06:50:26;16.80;99.90
35445;DHT22;21562;49.476;6.086;2023-08-01T06:52:51;16.70;99.90
35445;DHT22;21562;49.476;6.086;2023-08-01T06:55:17;16.90;99.90
35445;DHT22;21562;49.476;6.086;2023-08-01T06:57:42;17.00;99.90
35445;DHT22;21562;49.476;6.086;2023-08-01T07:00:08;17.00;99.90
35445;DHT22;21562;49.476;6.086;2023-08-01T07:02:34;16.80;99.90
35445;DHT22;21562;49.476;6.086;2023-08-01T07:04:59;16.80;99.90
35445;DHT22;21562;49.476;6.086;2023-08-01T07:07:25;17.00;99.90
35445;DHT22;21562;49.476;6.086;2023-08-01T07:09:51;17.10;99.90
35445;DHT22;21562;49.476;6.086;2023-08-01T07:12:16;17.10;99.90
35445;DHT22;21562;49.476;6.086;2023-08-01T07:14:42;16.90;99.90
35445;DHT22;21562;49.476;6.086;2023-08-01T07:17:08;17.00;99.90
35445;DHT22;21562;49.476;6.086;2023-08-01T07:19:33;17.00;99.90
35445;DHT22;21562;49.476;6.086;2023-08-01T07:21:59;16.90;99.90
35445;DHT22;21562;49.476;6.086;2023-08-01T07:24:25;17.20;99.90
35445;DHT22;21562;49.476;6.086;2023-08-01T07:26:50;17.20;99.90
35445;DHT22;21562;49.476;6.086;2023-08-01T07:29:16;17.10;99.90
35445;DHT22;21562;49.476;6.086;2023-08-01T07:31:42;17.20;99.90
35445;DHT22;21562;49.476;6.086;2023-08-01T07:34:08;17.10;99.90
35445;DHT22;21562;49.476;6.086;2023-08-01T07:36:34;17.10;99.90
35445;DHT22;21562;49.476;6.086;2023-08-01T07:38:59;17.20;99.90
35445;DHT22;21562;49.476;6.086;2023-08-01T07:41:25;17.30;99.90
35445;DHT22;21562;49.476;6.086;2023-08-01T07:43:50;17.60;99.90
35445;DHT22;21562;49.476;6.086;2023-08-01T07:46:16;17.80;99.90
35445;DHT22;21562;49.476;6.086;2023-08-01T07:48:41;17.80;99.90
35445;DHT22;21562;49.476;6.086;2023-08-01T07:51:07;17.80;99.90
35445;DHT22;21562;49.476;6.086;2023-08-01T07:53:34;18.00;99.90
35445;DHT22;21562;49.476;6.086;2023-08-01T07:56:00;17.90;99.90
35445;DHT22;21562;49.476;6.086;2023-08-01T07:58:28;17.50;99.90
35445;DHT22;21562;49.476;6.086;2023-08-01T08:00:53;17.70;99.90
35445;DHT22;21562;49.476;6.086;2023-08-01T08:03:19;17.80;99.90
35445;DHT22;21562;49.476;6.086;2023-08-01T08:05:48;17.70;99.90
35445;DHT22;21562;49.476;6.086;2023-08-01T08:08:13;17.70;99.90
35445;DHT22;21562;49.476;6.086;2023-08-01T08:10:39;17.70;99.90
35445;DHT22;21562;49.476;6.086;2023-08-01T08:13:05;17.90;99.90
35445;DHT22;21562;49.476;6.086;2023-08-01T08:15:30;18.00;99.90
35445;DHT22;21562;49.476;6.086;2023-08-01T08:18:00;18.10;99.90
35445;DHT22;21562;49.476;6.086;2023-08-01T08:20:26;17.90;99.90
35445;DHT22;21562;49.476;6.086;2023-08-01T08:22:52;17.70;99.90
35445;DHT22;21562;49.476;6.086;2023-08-01T08:25:18;17.90;99.90
35445;DHT22;21562;49.476;6.086;2023-08-01T08:27:43;18.00;99.90
35445;DHT22;21562;49.476;6.086;2023-08-01T08:30:09;18.00;99.90
35445;DHT22;21562;49.476;6.086;2023-08-01T08:32:35;18.10;99.90
35445;DHT22;21562;49.476;6.086;2023-08-01T08:35:02;18.10;99.90
35445;DHT22;21562;49.476;6.086;2023-08-01T08:37:27;18.20;99.90
35445;DHT22;21562;49.476;6.086;2023-08-01T08:39:53;18.10;99.90
35445;DHT22;21562;49.476;6.086;2023-08-01T08:42:19;18.20;99.90
35445;DHT22;21562;49.476;6.086;2023-08-01T08:44:49;18.50;99.90
35445;DHT22;21562;49.476;6.086;2023-08-01T08:47:17;18.50;99.90
35445;DHT22;21562;49.476;6.086;2023-08-01T08:49:45;18.20;99.90
35445;DHT22;21562;49.476;6.086;2023-08-01T08:52:11;17.90;99.90
35445;DHT22;21562;49.476;6.086;2023-08-01T08:54:38;18.00;99.90
35445;DHT22;21562;49.476;6.086;2023-08-01T08:57:07;18.10;99.90
35445;DHT22;21562;49.476;6.086;2023-08-01T08:59:33;18.30;99.90
35445;DHT22;21562;49.476;6.086;2023-08-01T09:02:01;18.10;99.90
35445;DHT22;21562;49.476;6.086;2023-08-01T09:04:29;17.90;99.90
35445;DHT22;21562;49.476;6.086;2023-08-01T09:07:01;18.20;99.90
35445;DHT22;21562;49.476;6.086;2023-08-01T09:09:26;18.50;99.90
35445;DHT22;21562;49.476;6.086;2023-08-01T09:11:53;18.40;99.90
35445;DHT22;21562;49.476;6.086;2023-08-01T09:14:21;18.70;99.90
35445;DHT22;21562;49.476;6.086;2023-08-01T09:16:47;18.60;99.90
35445;DHT22;21562;49.476;6.086;2023-08-01T09:19:17;18.60;99.90
35445;DHT22;21562;49.476;6.086;2023-08-01T09:21:43;18.50;99.90
35445;DHT22;21562;49.476;6.086;2023-08-01T09:24:14;18.30;99.90
35445;DHT22;21562;49.476;6.086;2023-08-01T09:26:40;18.60;99.90
35445;DHT22;21562;49.476;6.086;2023-08-01T09:29:06;18.50;99.90
35445;DHT22;21562;49.476;6.086;2023-08-01T09:31:35;18.70;99.90
35445;DHT22;21562;49.476;6.086;2023-08-01T09:34:03;18.60;99.90
35445;DHT22;21562;49.476;6.086;2023-08-01T09:36:33;18.80;99.90
35445;DHT22;21562;49.476;6.086;2023-08-01T09:38:59;18.80;99.90
35445;DHT22;21562;49.476;6.086;2023-08-01T09:41:25;18.50;99.90
35445;DHT22;21562;49.476;6.086;2023-08-01T09:43:51;18.50;99.90
35445;DHT22;21562;49.476;6.086;2023-08-01T09:46:17;18.80;99.90
35445;DHT22;21562;49.476;6.086;2023-08-01T09:48:42;19.00;99.90
35445;DHT22;21562;49.476;6.086;2023-08-01T09:51:13;19.30;99.90
35445;DHT22;21562;49.476;6.086;2023-08-01T09:53:54;19.20;99.90
35445;DHT22;21562;49.476;6.086;2023-08-01T09:56:24;19.20;99.90
35445;DHT22;21562;49.476;6.086;2023-08-01T09:58:52;19.10;99.90
35445;DHT22;21562;49.476;6.086;2023-08-01T10:01:20;19.20;99.90
35445;DHT22;21562;49.476;6.086;2023-08-01T10:03:47;18.90;99.90
35445;DHT22;21562;49.476;6.086;2023-08-01T10:06:20;18.90;99.90
35445;DHT22;21562;49.476;6.086;2023-08-01T10:08:46;19.20;99.90
35445;DHT22;21562;49.476;6.086;2023-08-01T10:11:14;19.30;99.90
35445;DHT22;21562;49.476;6.086;2023-08-01T10:13:42;19.20;99.90
35445;DHT22;21562;49.476;6.086;2023-08-01T10:16:09;19.10;99.90
35445;DHT22;21562;49.476;6.086;2023-08-01T10:18:34;19.40;99.90
35445;DHT22;21562;49.476;6.086;2023-08-01T10:21:05;19.60;99.90
35445;DHT22;21562;49.476;6.086;2023-08-01T10:23:35;19.80;99.90
35445;DHT22;21562;49.476;6.086;2023-08-01T10:26:04;20.00;99.90
35445;DHT22;21562;49.476;6.086;2023-08-01T10:28:37;19.90;99.90
35445;DHT22;21562;49.476;6.086;2023-08-01T10:31:21;20.00;99.90
35445;DHT22;21562;49.476;6.086;2023-08-01T10:33:48;20.10;99.90
35445;DHT22;21562;49.476;6.086;2023-08-01T10:36:22;20.20;99.90
35445;DHT22;21562;49.476;6.086;2023-08-01T10:38:56;19.90;99.90
35445;DHT22;21562;49.476;6.086;2023-08-01T10:44:14;19.90;99.90
35445;DHT22;21562;49.476;6.086;2023-08-01T10:49:35;19.40;99.90
35445;DHT22;21562;49.476;6.086;2023-08-01T10:52:02;19.50;99.90
35445;DHT22;21562;49.476;6.086;2023-08-01T10:54:28;19.70;99.90
35445;DHT22;21562;49.476;6.086;2023-08-01T10:56:55;19.90;99.90
35445;DHT22;21562;49.476;6.086;2023-08-01T10:59:24;19.90;99.90
35445;DHT22;21562;49.476;6.086;2023-08-01T11:01:51;19.70;99.90
35445;DHT22;21562;49.476;6.086;2023-08-01T11:04:19;19.90;99.90
35445;DHT22;21562;49.476;6.086;2023-08-01T11:06:47;20.00;99.90
35445;DHT22;21562;49.476;6.086;2023-08-01T11:09:17;19.50;99.90
35445;DHT22;21562;49.476;6.086;2023-08-01T11:11:44;19.10;99.90
35445;DHT22;21562;49.476;6.086;2023-08-01T11:14:11;19.40;99.90
35445;DHT22;21562;49.476;6.086;2023-08-01T11:16:39;19.70;99.90
35445;DHT22;21562;49.476;6.086;2023-08-01T11:19:04;20.10;99.90
35445;DHT22;21562;49.476;6.086;2023-08-01T11:21:30;20.20;99.90
35445;DHT22;21562;49.476;6.086;2023-08-01T11:23:56;20.20;99.90
35445;DHT22;21562;49.476;6.086;2023-08-01T11:26:22;20.40;99.90
35445;DHT22;21562;49.476;6.086;2023-08-01T11:28:48;20.20;99.90
35445;DHT22;21562;49.476;6.086;2023-08-01T11:31:14;20.00;99.90
35445;DHT22;21562;49.476;6.086;2023-08-01T11:33:39;19.80;99.90
35445;DHT22;21562;49.476;6.086;2023-08-01T11:36:05;19.60;99.90
35445;DHT22;21562;49.476;6.086;2023-08-01T11:38:33;19.50;99.90
35445;DHT22;21562;49.476;6.086;2023-08-01T11:41:01;19.50;99.90
35445;DHT22;21562;49.476;6.086;2023-08-01T11:43:37;19.70;99.90
35445;DHT22;21562;49.476;6.086;2023-08-01T11:46:03;19.60;99.90
35445;DHT22;21562;49.476;6.086;2023-08-01T11:48:28;19.80;99.90
35445;DHT22;21562;49.476;6.086;2023-08-01T11:51:01;20.00;99.90
35445;DHT22;21562;49.476;6.086;2023-08-01T11:53:27;20.30;99.90
35445;DHT22;21562;49.476;6.086;2023-08-01T11:55:54;20.40;99.90
35445;DHT22;21562;49.476;6.086;2023-08-01T12:01:09;20.40;99.90
35445;DHT22;21562;49.476;6.086;2023-08-01T12:03:48;20.50;99.90
35445;DHT22;21562;49.476;6.086;2023-08-01T12:06:14;20.40;99.90
35445;DHT22;21562;49.476;6.086;2023-08-01T12:08:44;20.60;99.90
35445;DHT22;21562;49.476;6.086;2023-08-01T12:11:27;20.60;99.90
35445;DHT22;21562;49.476;6.086;2023-08-01T12:16:35;20.70;99.90
35445;DHT22;21562;49.476;6.086;2023-08-01T12:19:02;20.70;99.90
35445;DHT22;21562;49.476;6.086;2023-08-01T12:21:28;20.80;99.90
35445;DHT22;21562;49.476;6.086;2023-08-01T12:23:54;20.40;99.90
35445;DHT22;21562;49.476;6.086;2023-08-01T12:26:20;20.60;99.90
35445;DHT22;21562;49.476;6.086;2023-08-01T12:28:45;21.00;99.90
35445;DHT22;21562;49.476;6.086;2023-08-01T12:31:16;21.10;99.90
35445;DHT22;21562;49.476;6.086;2023-08-01T12:33:42;20.80;99.90
35445;DHT22;21562;49.476;6.086;2023-08-01T12:36:07;21.00;99.90
35445;DHT22;21562;49.476;6.086;2023-08-01T12:38:33;20.60;99.90
35445;DHT22;21562;49.476;6.086;2023-08-01T12:40:58;20.60;99.90
35445;DHT22;21562;49.476;6.086;2023-08-01T12:43:24;20.40;99.90
35445;DHT22;21562;49.476;6.086;2023-08-01T12:45:50;20.60;99.90
35445;DHT22;21562;49.476;6.086;2023-08-01T12:48:15;20.60;99.90
35445;DHT22;21562;49.476;6.086;2023-08-01T12:50:47;20.70;99.90
35445;DHT22;21562;49.476;6.086;2023-08-01T12:53:13;20.90;99.90
35445;DHT22;21562;49.476;6.086;2023-08-01T12:55:45;20.70;99.90
35445;DHT22;21562;49.476;6.086;2023-08-01T12:58:12;20.40;99.90
35445;DHT22;21562;49.476;6.086;2023-08-01T13:00:39;20.40;99.90
35445;DHT22;21562;49.476;6.086;2023-08-01T13:03:05;20.40;99.90
35445;DHT22;21562;49.476;6.086;2023-08-01T13:05:34;20.30;99.90
35445;DHT22;21562;49.476;6.086;2023-08-01T13:08:00;20.20;99.90
35445;DHT22;21562;49.476;6.086;2023-08-01T13:10:26;20.20;99.90
35445;DHT22;21562;49.476;6.086;2023-08-01T13:12:51;20.30;99.90
35445;DHT22;21562;49.476;6.086;2023-08-01T13:15:17;20.10;99.90
35445;DHT22;21562;49.476;6.086;2023-08-01T13:17:43;20.00;99.90
35445;DHT22;21562;49.476;6.086;2023-08-01T13:20:09;19.90;99.90
35445;DHT22;21562;49.476;6.086;2023-08-01T13:22:35;19.80;99.90
35445;DHT22;21562;49.476;6.086;2023-08-01T13:25:00;19.90;99.90
35445;DHT22;21562;49.476;6.086;2023-08-01T13:27:27;20.10;99.90
35445;DHT22;21562;49.476;6.086;2023-08-01T13:29:53;20.10;99.90
35445;DHT22;21562;49.476;6.086;2023-08-01T13:32:19;20.10;99.90
35445;DHT22;21562;49.476;6.086;2023-08-01T13:34:45;19.60;99.90
35445;DHT22;21562;49.476;6.086;2023-08-01T13:37:11;19.40;99.90
35445;DHT22;21562;49.476;6.086;2023-08-01T13:39:37;19.20;99.90
35445;DHT22;21562;49.476;6.086;2023-08-01T13:42:03;19.00;99.90
35445;DHT22;21562;49.476;6.086;2023-08-01T13:44:29;18.60;99.90
35445;DHT22;21562;49.476;6.086;2023-08-01T13:46:55;18.50;99.90
35445;DHT22;21562;49.476;6.086;2023-08-01T13:49:20;18.80;99.90
35445;DHT22;21562;49.476;6.086;2023-08-01T13:51:46;19.30;99.90
35445;DHT22;21562;49.476;6.086;2023-08-01T13:54:11;19.50;99.90
35445;DHT22;21562;49.476;6.086;2023-08-01T13:56:38;19.80;99.90
35445;DHT22;21562;49.476;6.086;2023-08-01T13:59:03;20.00;99.90
35445;DHT22;21562;49.476;6.086;2023-08-01T14:01:29;20.00;99.90
35445;DHT22;21562;49.476;6.086;2023-08-01T14:03:54;20.20;99.90
35445;DHT22;21562;49.476;6.086;2023-08-01T14:06:20;20.40;99.90
35445;DHT22;21562;49.476;6.086;2023-08-01T14:08:46;20.40;99.90
35445;DHT22;21562;49.476;6.086;2023-08-01T14:11:11;20.40;99.90
35445;DHT22;21562;49.476;6.086;2023-08-01T14:13:37;20.60;99.90
35445;DHT22;21562;49.476;6.086;2023-08-01T14:16:03;20.60;99.90
35445;DHT22;21562;49.476;6.086;2023-08-01T14:18:29;20.30;99.90
35445;DHT22;21562;49.476;6.086;2023-08-01T14:20:55;20.30;99.90
35445;DHT22;21562;49.476;6.086;2023-08-01T14:23:21;20.30;99.90
35445;DHT22;21562;49.476;6.086;2023-08-01T14:25:47;20.50;99.90
35445;DHT22;21562;49.476;6.086;2023-08-01T14:28:13;20.60;99.90
35445;DHT22;21562;49.476;6.086;2023-08-01T14:30:39;20.90;99.90
35445;DHT22;21562;49.476;6.086;2023-08-01T14:33:07;21.00;99.90
35445;DHT22;21562;49.476;6.086;2023-08-01T14:35:36;20.30;99.90
35445;DHT22;21562;49.476;6.086;2023-08-01T14:38:02;20.10;99.90
35445;DHT22;21562;49.476;6.086;2023-08-01T14:40:29;19.80;99.90
35445;DHT22;21562;49.476;6.086;2023-08-01T14:42:55;19.30;99.90
35445;DHT22;21562;49.476;6.086;2023-08-01T14:45:21;19.10;99.90
35445;DHT22;21562;49.476;6.086;2023-08-01T14:47:47;19.30;99.90
35445;DHT22;21562;49.476;6.086;2023-08-01T14:50:13;19.30;99.90
35445;DHT22;21562;49.476;6.086;2023-08-01T14:52:40;19.40;99.90
35445;DHT22;21562;49.476;6.086;2023-08-01T14:55:06;19.50;99.90
35445;DHT22;21562;49.476;6.086;2023-08-01T14:57:32;19.30;99.90
35445;DHT22;21562;49.476;6.086;2023-08-01T14:59:58;19.10;99.90
35445;DHT22;21562;49.476;6.086;2023-08-01T15:02:23;19.20;99.90
35445;DHT22;21562;49.476;6.086;2023-08-01T15:04:53;19.20;99.90
35445;DHT22;21562;49.476;6.086;2023-08-01T15:07:24;18.90;99.90
35445;DHT22;21562;49.476;6.086;2023-08-01T15:09:50;19.20;99.90
35445;DHT22;21562;49.476;6.086;2023-08-01T15:12:17;19.40;99.90
35445;DHT22;21562;49.476;6.086;2023-08-01T15:14:42;19.60;99.90
35445;DHT22;21562;49.476;6.086;2023-08-01T15:17:08;19.70;99.90
35445;DHT22;21562;49.476;6.086;2023-08-01T15:19:35;19.80;99.90
35445;DHT22;21562;49.476;6.086;2023-08-01T15:22:01;19.90;99.90
35445;DHT22;21562;49.476;6.086;2023-08-01T15:24:27;19.90;99.90
35445;DHT22;21562;49.476;6.086;2023-08-01T15:26:52;19.90;99.90
35445;DHT22;21562;49.476;6.086;2023-08-01T15:29:18;19.70;99.90
35445;DHT22;21562;49.476;6.086;2023-08-01T15:31:43;19.50;99.90
35445;DHT22;21562;49.476;6.086;2023-08-01T15:34:09;18.90;99.90
35445;DHT22;21562;49.476;6.086;2023-08-01T15:36:35;18.80;99.90